sensor_id;sensor_type;location;lat;lon;timestamp;P1;durP1;ratioP1;P2;durP2;ratioP2
7493;SDS011;3788;49.902;8.590;2023-11-21T00:02:14;2.20;;;1.70;;
7493;SDS011;3788;49.902;8.590;2023-11-21T00:04:40;2.90;;;2.10;;
7493;SDS011;3788;49.902;8.590;2023-11-21T00:07:08;3.70;;;2.07;;
7493;SDS011;3788;49.902;8.590;2023-11-21T00:09:35;4.60;;;1.80;;
7493;SDS011;3788;49.902;8.590;2023-11-21T00:12:02;5.63;;;2.77;;
7493;SDS011;3788;49.902;8.590;2023-11-21T00:14:29;3.13;;;2.07;;
7493;SDS011;3788;49.902;8.590;2023-11-21T00:16:56;6.30;;;2.20;;
7493;SDS011;3788;49.902;8.590;2023-11-21T00:19:23;4.37;;;2.90;;
7493;SDS011;3788;49.902;8.590;2023-11-21T00:21:49;5.57;;;1.87;;
7493;SDS011;3788;49.902;8.590;2023-11-21T00:24:17;2.50;;;2.00;;
7493;SDS011;3788;49.902;8.590;2023-11-21T00:26:44;7.03;;;2.60;;
7493;SDS011;3788;49.902;8.590;2023-11-21T00:29:13;2.67;;;1.97;;
7493;SDS011;3788;49.902;8.590;2023-11-21T00:31:42;6.20;;;2.30;;
7493;SDS011;3788;49.902;8.590;2023-11-21T00:34:09;5.13;;;2.47;;
7493;SDS011;3788;49.902;8.590;2023-11-21T00:36:35;4.70;;;2.20;;
7493;SDS011;3788;49.902;8.590;2023-11-21T00:39:02;5.80;;;2.73;;
7493;SDS011;3788;49.902;8.590;2023-11-21T00:41:32;4.20;;;2.00;;
7493;SDS011;3788;49.902;8.590;2023-11-21T00:43:59;4.37;;;2.37;;
7493;SDS011;3788;49.902;8.590;2023-11-21T00:46:26;4.20;;;2.20;;
7493;SDS011;3788;49.902;8.590;2023-11-21T00:48:54;5.20;;;2.50;;
7493;SDS011;3788;49.902;8.590;2023-11-21T00:51:20;4.23;;;2.93;;
7493;SDS011;3788;49.902;8.590;2023-11-21T00:53:47;4.70;;;2.50;;
7493;SDS011;3788;49.902;8.590;2023-11-21T00:56:14;2.80;;;2.50;;
7493;SDS011;3788;49.902;8.590;2023-11-21T00:58:42;4.73;;;2.40;;
7493;SDS011;3788;49.902;8.590;2023-11-21T01:01:11;2.43;;;2.17;;
7493;SDS011;3788;49.902;8.590;2023-11-21T01:03:38;4.97;;;2.60;;
7493;SDS011;3788;49.902;8.590;2023-11-21T01:06:05;4.60;;;2.40;;
7493;SDS011;3788;49.902;8.590;2023-11-21T01:08:33;2.80;;;2.17;;
7493;SDS011;3788;49.902;8.590;2023-11-21T01:10:59;3.30;;;2.63;;
7493;SDS011;3788;49.902;8.590;2023-11-21T01:13:26;4.17;;;2.60;;
7493;SDS011;3788;49.902;8.590;2023-11-21T01:15:56;4.67;;;2.63;;
7493;SDS011;3788;49.902;8.590;2023-11-21T01:18:22;4.73;;;2.63;;
7493;SDS011;3788;49.902;8.590;2023-11-21T01:20:50;4.60;;;3.53;;
7493;SDS011;3788;49.902;8.590;2023-11-21T01:23:18;7.23;;;3.20;;
7493;SDS011;3788;49.902;8.590;2023-11-21T01:25:45;5.00;;;3.20;;
7493;SDS011;3788;49.902;8.590;2023-11-21T01:28:11;4.53;;;2.80;;
7493;SDS011;3788;49.902;8.590;2023-11-21T01:30:38;4.93;;;3.00;;
7493;SDS011;3788;49.902;8.590;2023-11-21T01:33:06;4.13;;;3.10;;
7493;SDS011;3788;49.902;8.590;2023-11-21T01:35:33;4.30;;;3.67;;
7493;SDS011;3788;49.902;8.590;2023-11-21T01:38:00;4.17;;;3.53;;
7493;SDS011;3788;49.902;8.590;2023-11-21T01:40:28;4.27;;;3.17;;
7493;SDS011;3788;49.902;8.590;2023-11-21T01:42:55;4.80;;;3.27;;
7493;SDS011;3788;49.902;8.590;2023-11-21T01:45:22;4.73;;;3.53;;
7493;SDS011;3788;49.902;8.590;2023-11-21T01:47:50;4.67;;;3.43;;
7493;SDS011;3788;49.902;8.590;2023-11-21T01:50:18;3.30;;;2.97;;
7493;SDS011;3788;49.902;8.590;2023-11-21T01:52:45;5.40;;;3.93;;
7493;SDS011;3788;49.902;8.590;2023-11-21T01:55:14;5.47;;;3.40;;
7493;SDS011;3788;49.902;8.590;2023-11-21T01:57:44;4.30;;;3.40;;
7493;SDS011;3788;49.902;8.590;2023-11-21T02:00:12;5.10;;;3.40;;
7493;SDS011;3788;49.902;8.590;2023-11-21T02:02:41;3.67;;;3.07;;
7493;SDS011;3788;49.902;8.590;2023-11-21T02:05:09;5.83;;;3.23;;
7493;SDS011;3788;49.902;8.590;2023-11-21T02:07:38;6.27;;;3.37;;
7493;SDS011;3788;49.902;8.590;2023-11-21T02:10:06;5.43;;;3.33;;
7493;SDS011;3788;49.902;8.590;2023-11-21T02:12:33;3.87;;;3.00;;
7493;SDS011;3788;49.902;8.590;2023-11-21T02:15:01;3.70;;;2.97;;
7493;SDS011;3788;49.902;8.590;2023-11-21T02:17:30;3.73;;;2.60;;
7493;SDS011;3788;49.902;8.590;2023-11-21T02:19:57;3.50;;;2.80;;
7493;SDS011;3788;49.902;8.590;2023-11-21T02:22:24;4.83;;;2.77;;
7493;SDS011;3788;49.902;8.590;2023-11-21T02:24:57;3.40;;;2.90;;
7493;SDS011;3788;49.902;8.590;2023-11-21T02:27:24;3.43;;;2.80;;
7493;SDS011;3788;49.902;8.590;2023-11-21T02:29:52;3.67;;;3.37;;
7493;SDS011;3788;49.902;8.590;2023-11-21T02:32:19;3.17;;;2.80;;
7493;SDS011;3788;49.902;8.590;2023-11-21T02:34:48;7.63;;;3.30;;
7493;SDS011;3788;49.902;8.590;2023-11-21T02:37:14;7.23;;;2.97;;
7493;SDS011;3788;49.902;8.590;2023-11-21T02:39:41;3.97;;;3.10;;
7493;SDS011;3788;49.902;8.590;2023-11-21T02:42:09;5.50;;;3.20;;
7493;SDS011;3788;49.902;8.590;2023-11-21T02:44:36;3.40;;;3.10;;
7493;SDS011;3788;49.902;8.590;2023-11-21T02:47:03;4.47;;;3.10;;
7493;SDS011;3788;49.902;8.590;2023-11-21T02:49:30;3.93;;;3.10;;
7493;SDS011;3788;49.902;8.590;2023-11-21T02:52:00;3.47;;;3.07;;
7493;SDS011;3788;49.902;8.590;2023-11-21T02:54:28;3.57;;;3.13;;
7493;SDS011;3788;49.902;8.590;2023-11-21T02:56:55;4.90;;;3.50;;
7493;SDS011;3788;49.902;8.590;2023-11-21T02:59:23;4.17;;;3.50;;
7493;SDS011;3788;49.902;8.590;2023-11-21T03:01:50;4.30;;;3.70;;
7493;SDS011;3788;49.902;8.590;2023-11-21T03:04:17;5.60;;;3.33;;
7493;SDS011;3788;49.902;8.590;2023-11-21T03:06:44;4.60;;;3.80;;
7493;SDS011;3788;49.902;8.590;2023-11-21T03:09:11;5.87;;;3.53;;
7493;SDS011;3788;49.902;8.590;2023-11-21T03:11:38;4.60;;;3.03;;
7493;SDS011;3788;49.902;8.590;2023-11-21T03:14:05;3.70;;;2.90;;
7493;SDS011;3788;49.902;8.590;2023-11-21T03:16:33;4.40;;;3.63;;
7493;SDS011;3788;49.902;8.590;2023-11-21T03:19:00;3.00;;;2.67;;
7493;SDS011;3788;49.902;8.590;2023-11-21T03:21:26;3.90;;;2.80;;
7493;SDS011;3788;49.902;8.590;2023-11-21T03:23:54;2.90;;;2.43;;
7493;SDS011;3788;49.902;8.590;2023-11-21T03:26:21;3.90;;;2.60;;
7493;SDS011;3788;49.902;8.590;2023-11-21T03:28:47;3.77;;;2.47;;
7493;SDS011;3788;49.902;8.590;2023-11-21T03:31:15;2.77;;;2.57;;
7493;SDS011;3788;49.902;8.590;2023-11-21T03:33:44;3.80;;;3.10;;
7493;SDS011;3788;49.902;8.590;2023-11-21T03:36:11;3.10;;;2.50;;
7493;SDS011;3788;49.902;8.590;2023-11-21T03:38:37;2.73;;;2.37;;
7493;SDS011;3788;49.902;8.590;2023-11-21T03:41:04;3.73;;;2.90;;
7493;SDS011;3788;49.902;8.590;2023-11-21T03:43:31;4.37;;;2.87;;
7493;SDS011;3788;49.902;8.590;2023-11-21T03:45:58;3.13;;;2.83;;
7493;SDS011;3788;49.902;8.590;2023-11-21T03:48:25;4.17;;;2.70;;
7493;SDS011;3788;49.902;8.590;2023-11-21T03:50:53;4.00;;;2.43;;
7493;SDS011;3788;49.902;8.590;2023-11-21T03:53:20;3.43;;;2.77;;
7493;SDS011;3788;49.902;8.590;2023-11-21T03:55:46;2.77;;;2.40;;
7493;SDS011;3788;49.902;8.590;2023-11-21T03:58:14;2.40;;;2.20;;
7493;SDS011;3788;49.902;8.590;2023-11-21T04:00:41;2.83;;;2.17;;
7493;SDS011;3788;49.902;8.590;2023-11-21T04:03:07;3.70;;;2.07;;
7493;SDS011;3788;49.902;8.590;2023-11-21T04:05:34;2.60;;;2.40;;
7493;SDS011;3788;49.902;8.590;2023-11-21T04:08:02;3.37;;;2.50;;
7493;SDS011;3788;49.902;8.590;2023-11-21T04:12:57;2.67;;;2.47;;
7493;SDS011;3788;49.902;8.590;2023-11-21T04:15:24;2.10;;;1.90;;
7493;SDS011;3788;49.902;8.590;2023-11-21T04:17:51;2.00;;;1.90;;
7493;SDS011;3788;49.902;8.590;2023-11-21T04:20:18;2.97;;;2.20;;
7493;SDS011;3788;49.902;8.590;2023-11-21T04:22:45;3.00;;;2.50;;
7493;SDS011;3788;49.902;8.590;2023-11-21T04:25:16;3.17;;;2.80;;
7493;SDS011;3788;49.902;8.590;2023-11-21T04:27:43;3.73;;;3.40;;
7493;SDS011;3788;49.902;8.590;2023-11-21T04:30:11;3.47;;;2.87;;
7493;SDS011;3788;49.902;8.590;2023-11-21T04:32:38;3.27;;;2.80;;
7493;SDS011;3788;49.902;8.590;2023-11-21T04:35:05;4.27;;;3.20;;
7493;SDS011;3788;49.902;8.590;2023-11-21T04:37:33;4.27;;;2.97;;
7493;SDS011;3788;49.902;8.590;2023-11-21T04:40:00;2.93;;;2.70;;
7493;SDS011;3788;49.902;8.590;2023-11-21T04:42:32;3.10;;;2.80;;
7493;SDS011;3788;49.902;8.590;2023-11-21T04:44:59;3.63;;;3.33;;
7493;SDS011;3788;49.902;8.590;2023-11-21T04:47:30;3.33;;;2.90;;
7493;SDS011;3788;49.902;8.590;2023-11-21T04:49:56;3.20;;;2.90;;
7493;SDS011;3788;49.902;8.590;2023-11-21T04:52:23;3.07;;;2.77;;
7493;SDS011;3788;49.902;8.590;2023-11-21T04:54:50;2.90;;;2.57;;
7493;SDS011;3788;49.902;8.590;2023-11-21T04:57:19;3.43;;;3.13;;
7493;SDS011;3788;49.902;8.590;2023-11-21T04:59:48;3.53;;;3.20;;
7493;SDS011;3788;49.902;8.590;2023-11-21T05:02:15;2.93;;;2.70;;
7493;SDS011;3788;49.902;8.590;2023-11-21T05:04:44;3.37;;;3.07;;
7493;SDS011;3788;49.902;8.590;2023-11-21T05:07:11;3.43;;;3.13;;
7493;SDS011;3788;49.902;8.590;2023-11-21T05:09:40;3.70;;;3.20;;
7493;SDS011;3788;49.902;8.590;2023-11-21T05:12:09;3.47;;;3.17;;
7493;SDS011;3788;49.902;8.590;2023-11-21T05:14:35;4.40;;;3.53;;
7493;SDS011;3788;49.902;8.590;2023-11-21T05:17:03;3.23;;;2.93;;
7493;SDS011;3788;49.902;8.590;2023-11-21T05:19:30;3.63;;;3.33;;
7493;SDS011;3788;49.902;8.590;2023-11-21T05:21:57;3.37;;;3.07;;
7493;SDS011;3788;49.902;8.590;2023-11-21T05:24:25;2.60;;;2.40;;
7493;SDS011;3788;49.902;8.590;2023-11-21T05:26:52;2.50;;;2.30;;
7493;SDS011;3788;49.902;8.590;2023-11-21T05:29:18;2.37;;;2.17;;
7493;SDS011;3788;49.902;8.590;2023-11-21T05:31:45;2.53;;;2.30;;
7493;SDS011;3788;49.902;8.590;2023-11-21T05:34:13;2.27;;;2.07;;
7493;SDS011;3788;49.902;8.590;2023-11-21T05:36:42;2.03;;;1.90;;
7493;SDS011;3788;49.902;8.590;2023-11-21T05:39:09;2.10;;;1.90;;
7493;SDS011;3788;49.902;8.590;2023-11-21T05:41:36;2.67;;;1.87;;
7493;SDS011;3788;49.902;8.590;2023-11-21T05:44:03;1.63;;;1.53;;
7493;SDS011;3788;49.902;8.590;2023-11-21T05:46:30;1.83;;;1.67;;
7493;SDS011;3788;49.902;8.590;2023-11-21T05:48:56;1.93;;;1.70;;
7493;SDS011;3788;49.902;8.590;2023-11-21T05:51:24;1.73;;;1.63;;
7493;SDS011;3788;49.902;8.590;2023-11-21T05:53:51;1.70;;;1.60;;
7493;SDS011;3788;49.902;8.590;2023-11-21T05:56:18;1.60;;;1.50;;
7493;SDS011;3788;49.902;8.590;2023-11-21T05:58:44;2.00;;;1.60;;
7493;SDS011;3788;49.902;8.590;2023-11-21T06:01:11;1.00;;;1.00;;
7493;SDS011;3788;49.902;8.590;2023-11-21T06:03:38;1.13;;;1.10;;
7493;SDS011;3788;49.902;8.590;2023-11-21T06:06:05;1.40;;;1.30;;
7493;SDS011;3788;49.902;8.590;2023-11-21T06:08:33;4.03;;;2.83;;
7493;SDS011;3788;49.902;8.590;2023-11-21T06:11:00;4.17;;;3.67;;
7493;SDS011;3788;49.902;8.590;2023-11-21T06:13:28;3.67;;;3.10;;
7493;SDS011;3788;49.902;8.590;2023-11-21T06:15:55;4.07;;;3.00;;
7493;SDS011;3788;49.902;8.590;2023-11-21T06:18:22;3.03;;;2.57;;
7493;SDS011;3788;49.902;8.590;2023-11-21T06:20:49;2.80;;;2.60;;
7493;SDS011;3788;49.902;8.590;2023-11-21T06:23:17;2.60;;;2.40;;
7493;SDS011;3788;49.902;8.590;2023-11-21T06:25:45;2.63;;;2.37;;
7493;SDS011;3788;49.902;8.590;2023-11-21T06:28:11;2.37;;;2.17;;
7493;SDS011;3788;49.902;8.590;2023-11-21T06:30:42;2.07;;;1.90;;
7493;SDS011;3788;49.902;8.590;2023-11-21T06:33:09;2.27;;;2.07;;
7493;SDS011;3788;49.902;8.590;2023-11-21T06:35:36;2.40;;;2.13;;
7493;SDS011;3788;49.902;8.590;2023-11-21T06:38:05;2.93;;;2.73;;
7493;SDS011;3788;49.902;8.590;2023-11-21T06:40:31;2.70;;;2.60;;
7493;SDS011;3788;49.902;8.590;2023-11-21T06:43:00;2.30;;;2.10;;
7493;SDS011;3788;49.902;8.590;2023-11-21T06:45:27;2.60;;;2.40;;
7493;SDS011;3788;49.902;8.590;2023-11-21T06:47:54;2.70;;;2.50;;
7493;SDS011;3788;49.902;8.590;2023-11-21T06:50:20;3.13;;;2.83;;
7493;SDS011;3788;49.902;8.590;2023-11-21T06:52:47;2.47;;;2.27;;
7493;SDS011;3788;49.902;8.590;2023-11-21T06:55:14;2.50;;;2.30;;
7493;SDS011;3788;49.902;8.590;2023-11-21T06:57:43;3.40;;;2.70;;
7493;SDS011;3788;49.902;8.590;2023-11-21T07:00:13;4.20;;;3.90;;
7493;SDS011;3788;49.902;8.590;2023-11-21T07:02:43;63.50;;;39.57;;
7493;SDS011;3788;49.902;8.590;2023-11-21T07:05:09;52.53;;;34.30;;
7493;SDS011;3788;49.902;8.590;2023-11-21T07:07:36;42.47;;;27.10;;
7493;SDS011;3788;49.902;8.590;2023-11-21T07:10:04;35.87;;;23.40;;
7493;SDS011;3788;49.902;8.590;2023-11-21T07:12:30;30.23;;;21.43;;
7493;SDS011;3788;49.902;8.590;2023-11-21T07:14:57;29.67;;;20.07;;
7493;SDS011;3788;49.902;8.590;2023-11-21T07:17:25;28.27;;;18.97;;
7493;SDS011;3788;49.902;8.590;2023-11-21T07:19:52;23.47;;;17.73;;
7493;SDS011;3788;49.902;8.590;2023-11-21T07:22:20;19.07;;;15.13;;
7493;SDS011;3788;49.902;8.590;2023-11-21T07:24:47;13.33;;;11.03;;
7493;SDS011;3788;49.902;8.590;2023-11-21T07:27:15;10.83;;;9.63;;
7493;SDS011;3788;49.902;8.590;2023-11-21T07:29:42;8.40;;;7.40;;
7493;SDS011;3788;49.902;8.590;2023-11-21T07:32:09;6.80;;;5.87;;
7493;SDS011;3788;49.902;8.590;2023-11-21T07:34:37;7.20;;;5.20;;
7493;SDS011;3788;49.902;8.590;2023-11-21T07:37:03;5.23;;;4.73;;
7493;SDS011;3788;49.902;8.590;2023-11-21T07:39:30;4.27;;;3.87;;
7493;SDS011;3788;49.902;8.590;2023-11-21T07:41:57;4.87;;;4.17;;
7493;SDS011;3788;49.902;8.590;2023-11-21T07:44:23;4.47;;;4.07;;
7493;SDS011;3788;49.902;8.590;2023-11-21T07:46:51;4.67;;;3.90;;
7493;SDS011;3788;49.902;8.590;2023-11-21T07:49:22;4.57;;;4.10;;
7493;SDS011;3788;49.902;8.590;2023-11-21T07:51:50;6.63;;;5.47;;
7493;SDS011;3788;49.902;8.590;2023-11-21T07:54:17;5.30;;;4.53;;
7493;SDS011;3788;49.902;8.590;2023-11-21T07:56:43;4.60;;;4.20;;
7493;SDS011;3788;49.902;8.590;2023-11-21T07:59:10;8.83;;;4.83;;
7493;SDS011;3788;49.902;8.590;2023-11-21T08:01:37;6.13;;;5.33;;
7493;SDS011;3788;49.902;8.590;2023-11-21T08:04:05;7.63;;;5.93;;
7493;SDS011;3788;49.902;8.590;2023-11-21T08:06:33;6.43;;;5.57;;
7493;SDS011;3788;49.902;8.590;2023-11-21T08:09:01;8.20;;;6.13;;
7493;SDS011;3788;49.902;8.590;2023-11-21T08:11:28;8.50;;;6.20;;
7493;SDS011;3788;49.902;8.590;2023-11-21T08:13:57;8.53;;;6.37;;
7493;SDS011;3788;49.902;8.590;2023-11-21T08:16:24;7.23;;;5.80;;
7493;SDS011;3788;49.902;8.590;2023-11-21T08:18:50;6.97;;;5.83;;
7493;SDS011;3788;49.902;8.590;2023-11-21T08:21:17;6.03;;;5.20;;
7493;SDS011;3788;49.902;8.590;2023-11-21T08:23:45;6.53;;;5.23;;
7493;SDS011;3788;49.902;8.590;2023-11-21T08:26:13;6.97;;;5.30;;
7493;SDS011;3788;49.902;8.590;2023-11-21T08:28:42;7.77;;;5.53;;
7493;SDS011;3788;49.902;8.590;2023-11-21T08:31:09;5.70;;;4.67;;
7493;SDS011;3788;49.902;8.590;2023-11-21T08:33:35;7.13;;;5.67;;
7493;SDS011;3788;49.902;8.590;2023-11-21T08:36:06;6.00;;;4.50;;
7493;SDS011;3788;49.902;8.590;2023-11-21T08:38:33;5.47;;;4.50;;
7493;SDS011;3788;49.902;8.590;2023-11-21T08:41:02;6.77;;;4.87;;
7493;SDS011;3788;49.902;8.590;2023-11-21T08:43:33;5.03;;;4.33;;
7493;SDS011;3788;49.902;8.590;2023-11-21T08:46:00;5.93;;;4.37;;
7493;SDS011;3788;49.902;8.590;2023-11-21T08:48:27;5.13;;;4.40;;
7493;SDS011;3788;49.902;8.590;2023-11-21T08:50:54;6.27;;;4.53;;
7493;SDS011;3788;49.902;8.590;2023-11-21T08:53:21;5.43;;;4.53;;
7493;SDS011;3788;49.902;8.590;2023-11-21T08:55:48;6.17;;;4.27;;
7493;SDS011;3788;49.902;8.590;2023-11-21T08:58:15;4.27;;;3.83;;
7493;SDS011;3788;49.902;8.590;2023-11-21T09:00:43;4.20;;;3.80;;
7493;SDS011;3788;49.902;8.590;2023-11-21T09:03:11;4.47;;;3.70;;
7493;SDS011;3788;49.902;8.590;2023-11-21T09:05:38;4.87;;;4.07;;
7493;SDS011;3788;49.902;8.590;2023-11-21T09:08:05;4.17;;;3.63;;
7493;SDS011;3788;49.902;8.590;2023-11-21T09:10:32;5.17;;;3.87;;
7493;SDS011;3788;49.902;8.590;2023-11-21T09:13:00;4.80;;;3.80;;
7493;SDS011;3788;49.902;8.590;2023-11-21T09:15:27;3.73;;;3.37;;
7493;SDS011;3788;49.902;8.590;2023-11-21T09:17:56;4.83;;;3.33;;
7493;SDS011;3788;49.902;8.590;2023-11-21T09:20:23;4.20;;;3.80;;
7493;SDS011;3788;49.902;8.590;2023-11-21T09:22:49;3.87;;;3.23;;
7493;SDS011;3788;49.902;8.590;2023-11-21T09:25:16;5.53;;;3.80;;
7493;SDS011;3788;49.902;8.590;2023-11-21T09:27:44;5.87;;;3.73;;
7493;SDS011;3788;49.902;8.590;2023-11-21T09:30:11;4.53;;;4.03;;
7493;SDS011;3788;49.902;8.590;2023-11-21T09:32:39;4.70;;;3.87;;
7493;SDS011;3788;49.902;8.590;2023-11-21T09:35:07;4.20;;;3.80;;
7493;SDS011;3788;49.902;8.590;2023-11-21T09:37:35;4.43;;;4.03;;
7493;SDS011;3788;49.902;8.590;2023-11-21T09:40:03;5.37;;;3.50;;
7493;SDS011;3788;49.902;8.590;2023-11-21T09:42:36;4.27;;;3.57;;
7493;SDS011;3788;49.902;8.590;2023-11-21T09:45:08;4.47;;;4.07;;
7493;SDS011;3788;49.902;8.590;2023-11-21T09:47:40;5.10;;;3.73;;
7493;SDS011;3788;49.902;8.590;2023-11-21T09:50:10;5.50;;;4.23;;
7493;SDS011;3788;49.902;8.590;2023-11-21T09:52:39;6.53;;;3.70;;
7493;SDS011;3788;49.902;8.590;2023-11-21T09:55:15;5.00;;;4.00;;
7493;SDS011;3788;49.902;8.590;2023-11-21T09:57:46;5.20;;;4.07;;
7493;SDS011;3788;49.902;8.590;2023-11-21T10:00:14;6.33;;;4.13;;
7493;SDS011;3788;49.902;8.590;2023-11-21T10:02:43;5.57;;;4.63;;
7493;SDS011;3788;49.902;8.590;2023-11-21T10:05:11;6.87;;;5.20;;
7493;SDS011;3788;49.902;8.590;2023-11-21T10:07:38;4.90;;;3.70;;
7493;SDS011;3788;49.902;8.590;2023-11-21T10:10:06;6.23;;;4.47;;
7493;SDS011;3788;49.902;8.590;2023-11-21T10:12:34;6.50;;;4.23;;
7493;SDS011;3788;49.902;8.590;2023-11-21T10:15:03;4.13;;;3.73;;
7493;SDS011;3788;49.902;8.590;2023-11-21T10:17:36;4.40;;;4.00;;
7493;SDS011;3788;49.902;8.590;2023-11-21T10:20:08;5.63;;;4.43;;
7493;SDS011;3788;49.902;8.590;2023-11-21T10:22:39;4.93;;;4.00;;
7493;SDS011;3788;49.902;8.590;2023-11-21T10:25:07;4.53;;;3.70;;
7493;SDS011;3788;49.902;8.590;2023-11-21T10:27:34;4.70;;;3.63;;
7493;SDS011;3788;49.902;8.590;2023-11-21T10:30:01;4.47;;;3.83;;
7493;SDS011;3788;49.902;8.590;2023-11-21T10:32:29;5.87;;;3.80;;
7493;SDS011;3788;49.902;8.590;2023-11-21T10:34:57;3.67;;;3.03;;
7493;SDS011;3788;49.902;8.590;2023-11-21T10:37:27;3.93;;;3.47;;
7493;SDS011;3788;49.902;8.590;2023-11-21T10:39:58;5.60;;;3.80;;
7493;SDS011;3788;49.902;8.590;2023-11-21T10:42:25;3.90;;;3.20;;
7493;SDS011;3788;49.902;8.590;2023-11-21T10:44:52;3.20;;;2.90;;
7493;SDS011;3788;49.902;8.590;2023-11-21T10:47:19;3.50;;;3.03;;
7493;SDS011;3788;49.902;8.590;2023-11-21T10:49:48;3.90;;;3.20;;
7493;SDS011;3788;49.902;8.590;2023-11-21T10:52:15;5.73;;;3.07;;
7493;SDS011;3788;49.902;8.590;2023-11-21T10:54:45;3.37;;;2.63;;
7493;SDS011;3788;49.902;8.590;2023-11-21T10:57:14;3.50;;;3.20;;
7493;SDS011;3788;49.902;8.590;2023-11-21T10:59:46;3.20;;;2.47;;
7493;SDS011;3788;49.902;8.590;2023-11-21T11:02:16;3.53;;;2.70;;
7493;SDS011;3788;49.902;8.590;2023-11-21T11:04:50;4.40;;;3.03;;
7493;SDS011;3788;49.902;8.590;2023-11-21T11:07:20;5.40;;;2.60;;
7493;SDS011;3788;49.902;8.590;2023-11-21T11:09:50;3.27;;;2.60;;
7493;SDS011;3788;49.902;8.590;2023-11-21T11:12:19;2.77;;;2.40;;
7493;SDS011;3788;49.902;8.590;2023-11-21T11:14:45;2.47;;;2.27;;
7493;SDS011;3788;49.902;8.590;2023-11-21T11:17:13;2.77;;;2.07;;
7493;SDS011;3788;49.902;8.590;2023-11-21T11:19:41;3.70;;;2.73;;
7493;SDS011;3788;49.902;8.590;2023-11-21T11:22:12;3.63;;;2.60;;
7493;SDS011;3788;49.902;8.590;2023-11-21T11:24:50;3.53;;;2.83;;
7493;SDS011;3788;49.902;8.590;2023-11-21T11:27:34;3.13;;;2.30;;
7493;SDS011;3788;49.902;8.590;2023-11-21T11:30:10;2.97;;;2.40;;
7493;SDS011;3788;49.902;8.590;2023-11-21T11:32:43;2.83;;;2.40;;
7493;SDS011;3788;49.902;8.590;2023-11-21T11:35:34;3.20;;;2.00;;
7493;SDS011;3788;49.902;8.590;2023-11-21T11:38:15;4.83;;;2.70;;
7493;SDS011;3788;49.902;8.590;2023-11-21T11:40:45;3.53;;;2.60;;
7493;SDS011;3788;49.902;8.590;2023-11-21T11:43:14;3.57;;;2.77;;
7493;SDS011;3788;49.902;8.590;2023-11-21T11:45:51;3.87;;;2.60;;
7493;SDS011;3788;49.902;8.590;2023-11-21T11:48:19;4.27;;;3.00;;
7493;SDS011;3788;49.902;8.590;2023-11-21T11:51:04;5.53;;;2.67;;
7493;SDS011;3788;49.902;8.590;2023-11-21T11:53:37;4.67;;;3.33;;
7493;SDS011;3788;49.902;8.590;2023-11-21T11:58:53;2.50;;;2.30;;
7493;SDS011;3788;49.902;8.590;2023-11-21T12:01:21;3.17;;;2.87;;
7493;SDS011;3788;49.902;8.590;2023-11-21T12:06:56;3.07;;;2.73;;
7493;SDS011;3788;49.902;8.590;2023-11-21T12:09:27;5.40;;;3.23;;
7493;SDS011;3788;49.902;8.590;2023-11-21T12:11:55;4.47;;;2.97;;
7493;SDS011;3788;49.902;8.590;2023-11-21T12:14:23;4.20;;;2.53;;
7493;SDS011;3788;49.902;8.590;2023-11-21T12:16:50;4.10;;;2.80;;
7493;SDS011;3788;49.902;8.590;2023-11-21T12:19:18;3.20;;;2.90;;
7493;SDS011;3788;49.902;8.590;2023-11-21T12:21:45;2.97;;;2.73;;
7493;SDS011;3788;49.902;8.590;2023-11-21T12:24:13;3.63;;;2.80;;
7493;SDS011;3788;49.902;8.590;2023-11-21T12:26:41;4.73;;;2.80;;
7493;SDS011;3788;49.902;8.590;2023-11-21T12:29:09;3.00;;;2.63;;
7493;SDS011;3788;49.902;8.590;2023-11-21T12:31:37;2.90;;;2.70;;
7493;SDS011;3788;49.902;8.590;2023-11-21T12:34:04;3.63;;;2.87;;
7493;SDS011;3788;49.902;8.590;2023-11-21T12:36:31;5.73;;;3.73;;
7493;SDS011;3788;49.902;8.590;2023-11-21T12:38:59;6.47;;;3.30;;
7493;SDS011;3788;49.902;8.590;2023-11-21T12:41:27;3.20;;;2.83;;
7493;SDS011;3788;49.902;8.590;2023-11-21T12:43:54;2.83;;;2.50;;
7493;SDS011;3788;49.902;8.590;2023-11-21T12:46:21;2.77;;;2.40;;
7493;SDS011;3788;49.902;8.590;2023-11-21T12:48:49;3.97;;;3.00;;
7493;SDS011;3788;49.902;8.590;2023-11-21T12:51:16;3.43;;;2.70;;
7493;SDS011;3788;49.902;8.590;2023-11-21T12:53:43;4.43;;;2.90;;
7493;SDS011;3788;49.902;8.590;2023-11-21T12:56:12;6.27;;;3.60;;
7493;SDS011;3788;49.902;8.590;2023-11-21T12:58:43;6.07;;;3.53;;
7493;SDS011;3788;49.902;8.590;2023-11-21T13:01:16;5.80;;;3.60;;
7493;SDS011;3788;49.902;8.590;2023-11-21T13:03:45;4.60;;;3.40;;
7493;SDS011;3788;49.902;8.590;2023-11-21T13:06:17;4.90;;;3.47;;
7493;SDS011;3788;49.902;8.590;2023-11-21T13:08:44;4.13;;;3.70;;
7493;SDS011;3788;49.902;8.590;2023-11-21T13:11:11;4.27;;;3.20;;
7493;SDS011;3788;49.902;8.590;2023-11-21T13:13:40;6.33;;;3.60;;
7493;SDS011;3788;49.902;8.590;2023-11-21T13:16:08;3.60;;;3.07;;
7493;SDS011;3788;49.902;8.590;2023-11-21T13:18:35;3.43;;;2.80;;
7493;SDS011;3788;49.902;8.590;2023-11-21T13:21:03;5.20;;;3.67;;
7493;SDS011;3788;49.902;8.590;2023-11-21T13:23:36;4.90;;;3.30;;
7493;SDS011;3788;49.902;8.590;2023-11-21T13:26:03;5.03;;;4.23;;
7493;SDS011;3788;49.902;8.590;2023-11-21T13:28:30;3.97;;;3.20;;
7493;SDS011;3788;49.902;8.590;2023-11-21T13:30:57;6.53;;;4.20;;
7493;SDS011;3788;49.902;8.590;2023-11-21T13:33:28;8.47;;;4.53;;
7493;SDS011;3788;49.902;8.590;2023-11-21T13:35:55;6.73;;;4.00;;
7493;SDS011;3788;49.902;8.590;2023-11-21T13:38:22;7.97;;;3.87;;
7493;SDS011;3788;49.902;8.590;2023-11-21T13:40:51;4.50;;;3.83;;
7493;SDS011;3788;49.902;8.590;2023-11-21T13:43:20;4.83;;;3.80;;
7493;SDS011;3788;49.902;8.590;2023-11-21T13:45:51;6.57;;;3.63;;
7493;SDS011;3788;49.902;8.590;2023-11-21T13:48:24;5.50;;;4.00;;
7493;SDS011;3788;49.902;8.590;2023-11-21T13:50:57;4.83;;;4.00;;
7493;SDS011;3788;49.902;8.590;2023-11-21T13:53:30;7.18;;;4.13;;
7493;SDS011;3788;49.902;8.590;2023-11-21T13:55:59;4.40;;;4.00;;
7493;SDS011;3788;49.902;8.590;2023-11-21T13:58:26;7.40;;;3.60;;
7493;SDS011;3788;49.902;8.590;2023-11-21T14:01:06;5.23;;;3.57;;
7493;SDS011;3788;49.902;8.590;2023-11-21T14:03:41;5.23;;;3.10;;
7493;SDS011;3788;49.902;8.590;2023-11-21T14:06:16;4.03;;;2.90;;
7493;SDS011;3788;49.902;8.590;2023-11-21T14:08:49;4.73;;;3.30;;
7493;SDS011;3788;49.902;8.590;2023-11-21T14:11:17;3.23;;;2.90;;
7493;SDS011;3788;49.902;8.590;2023-11-21T14:13:47;4.73;;;3.20;;
7493;SDS011;3788;49.902;8.590;2023-11-21T14:16:14;4.93;;;3.60;;
7493;SDS011;3788;49.902;8.590;2023-11-21T14:18:41;5.33;;;3.53;;
7493;SDS011;3788;49.902;8.590;2023-11-21T14:21:17;8.60;;;3.70;;
7493;SDS011;3788;49.902;8.590;2023-11-21T14:23:44;3.90;;;2.90;;
7493;SDS011;3788;49.902;8.590;2023-11-21T14:26:11;4.00;;;2.93;;
7493;SDS011;3788;49.902;8.590;2023-11-21T14:28:40;4.23;;;3.40;;
7493;SDS011;3788;49.902;8.590;2023-11-21T14:31:07;3.80;;;3.10;;
7493;SDS011;3788;49.902;8.590;2023-11-21T14:33:38;4.33;;;3.00;;
7493;SDS011;3788;49.902;8.590;2023-11-21T14:36:05;6.10;;;3.77;;
7493;SDS011;3788;49.902;8.590;2023-11-21T14:38:34;3.87;;;3.03;;
7493;SDS011;3788;49.902;8.590;2023-11-21T14:41:00;4.57;;;2.73;;
7493;SDS011;3788;49.902;8.590;2023-11-21T14:43:27;5.53;;;3.83;;
7493;SDS011;3788;49.902;8.590;2023-11-21T14:45:56;4.33;;;3.57;;
7493;SDS011;3788;49.902;8.590;2023-11-21T14:48:24;5.90;;;3.97;;
7493;SDS011;3788;49.902;8.590;2023-11-21T14:51:07;5.63;;;3.47;;
7493;SDS011;3788;49.902;8.590;2023-11-21T14:53:52;3.87;;;2.90;;
7493;SDS011;3788;49.902;8.590;2023-11-21T14:56:18;3.20;;;2.90;;
7493;SDS011;3788;49.902;8.590;2023-11-21T14:58:51;4.57;;;3.43;;
7493;SDS011;3788;49.902;8.590;2023-11-21T15:01:19;4.17;;;3.10;;
7493;SDS011;3788;49.902;8.590;2023-11-21T15:03:55;3.30;;;3.00;;
7493;SDS011;3788;49.902;8.590;2023-11-21T15:06:21;3.30;;;3.00;;
7493;SDS011;3788;49.902;8.590;2023-11-21T15:08:55;4.17;;;3.00;;
7493;SDS011;3788;49.902;8.590;2023-11-21T15:11:44;4.53;;;3.73;;
7493;SDS011;3788;49.902;8.590;2023-11-21T15:14:12;9.63;;;3.57;;
7493;SDS011;3788;49.902;8.590;2023-11-21T15:16:46;3.83;;;3.43;;
7493;SDS011;3788;49.902;8.590;2023-11-21T15:19:16;3.93;;;3.27;;
7493;SDS011;3788;49.902;8.590;2023-11-21T15:21:49;4.67;;;3.43;;
7493;SDS011;3788;49.902;8.590;2023-11-21T15:24:16;4.30;;;3.23;;
7493;SDS011;3788;49.902;8.590;2023-11-21T15:26:43;5.43;;;3.93;;
7493;SDS011;3788;49.902;8.590;2023-11-21T15:29:09;6.07;;;3.53;;
7493;SDS011;3788;49.902;8.590;2023-11-21T15:31:37;3.83;;;3.40;;